Time;durP1;ratioP1;P1;durP2;ratioP2;P2;SDS_P1;SDS_P2;PMS_P1;PMS_P2;Temp;Humidity;BMP_temperature;BMP_pressure;BME280_temperature;BME280_humidity;BME280_pressure;Samples;Min_cycle;Max_cycle;Signal;HPM_P1;HPM_P2
2022/01/07 00:01:21;;;;;;;19.13;13.53;;;;;;;-4.69;100.00;101123.06;5008154;28;20918;-75
2022/01/07 00:03:47;;;;;;;20.03;13.40;;;;;;;-4.70;100.00;101113.66;5008211;28;20508;-75
2022/01/07 00:06:14;;;;;;;21.43;13.20;;;;;;;-4.58;100.00;101119.28;5007691;28;20439;-75
2022/01/07 00:08:40;;;;;;;20.93;13.23;;;;;;;-4.71;100.00;101122.97;5005969;28;20452;-75
2022/01/07 00:11:08;;;;;;;21.30;12.70;;;;;;;-4.74;100.00;101125.38;5004417;28;20558;-75
2022/01/07 00:13:35;;;;;;;21.67;12.70;;;;;;;-4.63;100.00;101119.06;5007701;28;20468;-75
2022/01/07 00:16:01;;;;;;;22.30;13.13;;;;;;;-4.62;100.00;101114.88;5007654;28;20448;-75
2022/01/07 00:18:28;;;;;;;28.47;14.30;;;;;;;-4.68;100.00;101119.69;5007053;28;20451;-75
2022/01/07 00:20:55;;;;;;;27.37;15.70;;;;;;;-4.74;100.00;101116.88;5007448;28;20559;-75
2022/01/07 00:23:22;;;;;;;28.30;17.33;;;;;;;-4.73;100.00;101111.88;5007513;28;20772;-75
2022/01/07 00:25:49;;;;;;;26.20;18.17;;;;;;;-4.76;100.00;101114.28;5007041;28;20479;-75
2022/01/07 00:28:17;;;;;;;36.00;19.07;;;;;;;-4.58;100.00;101115.06;5007276;28;20456;-75
2022/01/07 00:30:43;;;;;;;33.83;21.07;;;;;;;-4.51;100.00;101120.44;4989067;28;20500;-75
2022/01/07 00:33:10;;;;;;;33.30;21.87;;;;;;;-4.62;100.00;101120.84;5006541;28;20479;-75
2022/01/07 00:35:36;;;;;;;39.43;23.80;;;;;;;-4.54;100.00;101110.97;5007697;28;20803;-75
2022/01/07 00:38:04;;;;;;;42.47;24.57;;;;;;;-4.69;100.00;101120.50;5007775;28;21276;-75
2022/01/07 00:40:30;;;;;;;43.57;26.23;;;;;;;-4.71;100.00;101119.53;5006104;28;20452;-75
2022/01/07 00:42:57;;;;;;;45.27;25.47;;;;;;;-4.70;100.00;101124.69;5007309;28;20478;-75
2022/01/07 00:45:25;;;;;;;41.67;24.30;;;;;;;-4.63;100.00;101130.94;5007429;28;20964;-75
2022/01/07 00:47:53;;;;;;;44.10;26.00;;;;;;;-4.56;100.00;101125.31;4990334;28;20989;-75
2022/01/07 00:50:21;;;;;;;45.77;24.93;;;;;;;-4.63;100.00;101116.53;5003159;28;20960;-75
2022/01/07 00:52:48;;;;;;;42.40;24.53;;;;;;;-4.65;100.00;101113.06;5007242;28;20485;-75
2022/01/07 00:55:15;;;;;;;39.03;21.43;;;;;;;-4.61;100.00;101114.06;5008021;28;20464;-75
2022/01/07 00:57:42;;;;;;;40.90;20.53;;;;;;;-4.57;100.00;101113.41;5009993;28;20458;-75
2022/01/07 01:00:11;;;;;;;30.87;18.23;;;;;;;-4.53;100.00;101112.72;5005598;28;20578;-75
2022/01/07 01:02:39;;;;;;;33.13;21.40;;;;;;;-4.52;100.00;101111.94;5004270;28;20494;-75
2022/01/07 01:05:09;;;;;;;35.87;20.40;;;;;;;-4.50;100.00;101117.06;5010736;28;20468;-75
2022/01/07 01:07:36;;;;;;;32.10;19.37;;;;;;;-4.47;100.00;101118.06;5010411;28;20461;-75
2022/01/07 01:10:06;;;;;;;33.37;18.07;;;;;;;-4.50;100.00;101109.41;5016735;28;20472;-75
2022/01/07 01:12:32;;;;;;;33.07;17.73;;;;;;;-4.54;100.00;101108.41;5004753;28;20992;-75
2022/01/07 01:14:58;;;;;;;28.40;17.43;;;;;;;-4.54;100.00;101103.34;5008307;28;20987;-75
2022/01/07 01:17:25;;;;;;;32.67;16.80;;;;;;;-4.47;100.00;101107.88;5008681;28;20464;-75
2022/01/07 01:19:52;;;;;;;29.83;15.20;;;;;;;-4.37;100.00;101099.81;5010298;28;20466;-75
2022/01/07 01:22:19;;;;;;;28.83;16.97;;;;;;;-4.47;100.00;101087.50;5010536;28;20468;-75
2022/01/07 01:24:46;;;;;;;33.17;17.30;;;;;;;-4.51;100.00;101085.66;5008807;28;20814;-75
2022/01/07 01:27:12;;;;;;;32.83;17.37;;;;;;;-4.54;100.00;101087.19;5006870;28;20988;-75
2022/01/07 01:29:38;;;;;;;30.77;18.00;;;;;;;-4.30;100.00;101095.00;5010291;28;20452;-75
2022/01/07 01:32:06;;;;;;;30.50;15.87;;;;;;;-4.34;100.00;101090.56;5009813;28;20500;-75
2022/01/07 01:34:32;;;;;;;25.67;14.77;;;;;;;-4.37;100.00;101093.88;5007275;28;20457;-75
2022/01/07 01:37:00;;;;;;;29.17;15.07;;;;;;;-4.32;100.00;101096.63;5009573;28;20455;-75
2022/01/07 01:39:27;;;;;;;29.87;14.37;;;;;;;-4.35;100.00;101099.91;5009574;28;20459;-75
2022/01/07 01:41:53;;;;;;;25.50;14.20;;;;;;;-4.32;100.00;101099.16;5009950;28;20468;-75
2022/01/07 01:44:20;;;;;;;23.73;13.57;;;;;;;-4.42;100.00;101098.75;5008845;28;20799;-75
2022/01/07 01:46:47;;;;;;;26.33;13.00;;;;;;;-4.55;100.00;101090.56;5009134;28;20460;-75
2022/01/07 01:49:13;;;;;;;25.30;14.40;;;;;;;-4.58;100.00;101088.75;5006597;28;20457;-75
2022/01/07 01:51:40;;;;;;;26.03;14.23;;;;;;;-4.57;100.00;101085.41;5006461;28;21040;-75
2022/01/07 01:54:08;;;;;;;23.47;14.03;;;;;;;-4.57;100.00;101082.88;5007147;28;21021;-75
2022/01/07 01:56:35;;;;;;;21.70;13.70;;;;;;;-4.54;100.00;101077.88;5009617;28;20448;-75
2022/01/07 01:59:02;;;;;;;23.40;14.37;;;;;;;-4.53;100.00;101078.78;5010029;28;20485;-75
2022/01/07 02:01:28;;;;;;;25.70;13.70;;;;;;;-4.62;100.00;101077.56;5004973;28;20821;-75
2022/01/07 02:03:55;;;;;;;26.03;15.10;;;;;;;-4.57;100.00;101067.59;5007875;28;20465;-75
2022/01/07 02:06:22;;;;;;;24.03;13.77;;;;;;;-4.52;100.00;101068.66;4991298;28;20456;-75
2022/01/07 02:08:50;;;;;;;25.43;13.77;;;;;;;-4.54;100.00;101072.78;5008019;28;20463;-75
2022/01/07 02:11:18;;;;;;;22.67;13.27;;;;;;;-4.49;100.00;101076.41;5009212;28;20492;-75
2022/01/07 02:13:48;;;;;;;22.43;11.40;;;;;;;-4.57;100.00;101071.00;5006250;28;20618;-75
2022/01/07 02:16:14;;;;;;;19.50;10.60;;;;;;;-4.56;100.00;101064.22;5009673;28;20508;-75
2022/01/07 02:18:43;;;;;;;17.87;10.43;;;;;;;-4.64;100.00;101066.47;5009352;28;20805;-75
2022/01/07 02:21:11;;;;;;;19.27;10.37;;;;;;;-4.58;100.00;101064.16;5009718;28;20952;-75
2022/01/07 02:23:37;;;;;;;21.23;9.23;;;;;;;-4.55;100.00;101055.78;5009527;28;20475;-75
2022/01/07 02:26:04;;;;;;;20.07;10.17;;;;;;;-4.63;100.00;101055.44;5005651;28;20431;-75
2022/01/07 02:28:34;;;;;;;18.70;9.50;;;;;;;-4.63;100.00;101054.59;5008694;28;20455;-75
2022/01/07 02:31:01;;;;;;;16.77;9.00;;;;;;;-4.55;100.00;101058.34;5005210;28;20491;-75
2022/01/07 02:33:27;;;;;;;18.70;9.20;;;;;;;-4.57;100.00;101053.19;5007662;28;20561;-75
2022/01/07 02:35:54;;;;;;;17.80;8.60;;;;;;;-4.55;100.00;101060.88;5007762;28;20834;-75
2022/01/07 02:38:21;;;;;;;16.27;7.90;;;;;;;-4.65;100.00;101057.06;5007851;28;20475;-75
2022/01/07 02:40:48;;;;;;;12.80;6.73;;;;;;;-4.63;100.00;101064.78;5013362;28;20810;-75
2022/01/07 02:43:14;;;;;;;13.07;6.93;;;;;;;-4.58;100.00;101063.28;5007920;28;20476;-75
2022/01/07 02:45:41;;;;;;;9.00;6.37;;;;;;;-4.57;100.00;101052.31;5008375;28;20816;-75
2022/01/07 02:48:07;;;;;;;14.13;6.30;;;;;;;-4.60;100.00;101052.19;5006616;28;20449;-75
2022/01/07 02:50:36;;;;;;;11.70;6.30;;;;;;;-4.54;100.00;101056.66;5007480;28;20452;-75
2022/01/07 02:53:04;;;;;;;18.47;6.83;;;;;;;-4.52;100.00;101055.03;5002060;28;20488;-75
2022/01/07 02:55:33;;;;;;;16.13;6.20;;;;;;;-4.50;100.00;101043.25;5006771;28;20460;-75
2022/01/07 02:58:00;;;;;;;12.77;6.33;;;;;;;-4.51;100.00;101047.47;5003534;28;20451;-75
2022/01/07 03:00:27;;;;;;;11.40;6.20;;;;;;;-4.45;100.00;101040.09;5008298;28;20463;-76
2022/01/07 03:02:56;;;;;;;9.60;5.87;;;;;;;-4.44;100.00;101035.88;5008540;28;20484;-75
2022/01/07 03:05:23;;;;;;;10.73;5.80;;;;;;;-4.44;100.00;101039.28;5008767;28;20453;-75
2022/01/07 03:07:50;;;;;;;12.37;5.90;;;;;;;-4.42;100.00;101035.13;5005072;28;20814;-75
2022/01/07 03:10:20;;;;;;;7.67;4.97;;;;;;;-4.41;100.00;101036.88;5008193;28;20469;-75
2022/01/07 03:12:48;;;;;;;11.07;5.67;;;;;;;-4.40;100.00;101038.63;5004032;28;20959;-75
2022/01/07 03:15:15;;;;;;;11.47;6.20;;;;;;;-4.45;100.00;101039.22;5004264;28;20458;-75
2022/01/07 03:17:42;;;;;;;12.50;6.67;;;;;;;-4.42;100.00;101034.25;5007622;28;20456;-75
2022/01/07 03:20:11;;;;;;;13.67;7.07;;;;;;;-4.41;100.00;101033.47;5008210;28;20499;-75
2022/01/07 03:22:38;;;;;;;13.83;7.63;;;;;;;-4.44;100.00;101028.25;5007360;28;20465;-75
2022/01/07 03:25:06;;;;;;;15.23;7.93;;;;;;;-4.42;100.00;101027.47;5008339;28;20453;-75
2022/01/07 03:27:32;;;;;;;15.77;7.13;;;;;;;-4.43;100.00;101022.34;5000529;28;20449;-75
2022/01/07 03:30:00;;;;;;;12.43;7.57;;;;;;;-4.45;100.00;101022.28;5005420;28;20459;-75
2022/01/07 03:32:27;;;;;;;13.37;7.83;;;;;;;-4.42;100.00;101022.38;5006440;28;20492;-75
2022/01/07 03:34:54;;;;;;;15.50;8.03;;;;;;;-4.41;100.00;101019.06;5008006;28;20482;-75
2022/01/07 03:37:20;;;;;;;20.67;8.50;;;;;;;-4.41;100.00;101011.41;5008012;28;20942;-75
2022/01/07 03:39:47;;;;;;;21.07;9.67;;;;;;;-4.42;100.00;101009.66;5008028;28;20456;-75
2022/01/07 03:42:14;;;;;;;16.40;8.73;;;;;;;-4.43;100.00;100997.75;5007241;28;20477;-75
2022/01/07 03:44:40;;;;;;;14.13;7.10;;;;;;;-4.44;100.00;101001.09;5007729;28;20971;-75
2022/01/07 03:47:08;;;;;;;11.80;5.33;;;;;;;-4.37;100.00;100999.69;5004785;28;20557;-75
2022/01/07 03:49:34;;;;;;;11.93;4.67;;;;;;;-4.35;100.00;101000.59;5006337;28;20456;-75
2022/01/07 03:52:01;;;;;;;7.47;3.73;;;;;;;-4.37;100.00;100992.91;5007372;28;20503;-75
2022/01/07 03:54:27;;;;;;;6.73;3.73;;;;;;;-4.33;100.00;100988.78;5007943;28;20470;-75
2022/01/07 03:56:53;;;;;;;7.17;3.20;;;;;;;-4.32;100.00;100988.00;5002231;28;20468;-75
2022/01/07 03:59:20;;;;;;;6.13;3.13;;;;;;;-4.29;100.00;100983.03;5005566;28;20474;-75
2022/01/07 04:01:46;;;;;;;11.20;3.37;;;;;;;-4.26;100.00;100978.03;5006184;28;20469;-75
2022/01/07 04:04:14;;;;;;;5.73;3.03;;;;;;;-4.24;100.00;100968.81;5007506;28;20462;-75
2022/01/07 04:06:40;;;;;;;4.70;2.67;;;;;;;-4.23;100.00;100969.69;5007365;28;20456;-75
2022/01/07 04:09:07;;;;;;;6.90;2.63;;;;;;;-4.22;100.00;100971.41;4988254;28;20460;-75
2022/01/07 04:11:33;;;;;;;6.50;2.33;;;;;;;-4.21;100.00;100968.91;5007661;28;20477;-75
2022/01/07 04:14:00;;;;;;;4.70;2.80;;;;;;;-4.15;100.00;100967.41;5006008;28;20790;-75
2022/01/07 04:16:26;;;;;;;11.60;2.93;;;;;;;-4.20;100.00;100969.81;5008324;28;20459;-75
2022/01/07 04:18:52;;;;;;;6.40;3.43;;;;;;;-4.21;100.00;100968.06;5007302;28;20464;-75
2022/01/07 04:21:20;;;;;;;8.07;3.10;;;;;;;-4.23;100.00;100964.59;5007461;28;20469;-75
2022/01/07 04:23:47;;;;;;;5.57;3.37;;;;;;;-4.19;100.00;100962.22;5005284;28;21001;-75
2022/01/07 04:26:13;;;;;;;6.87;2.87;;;;;;;-4.17;100.00;100969.91;5007044;28;20478;-75
2022/01/07 04:28:40;;;;;;;7.83;2.70;;;;;;;-4.21;100.00;100961.28;5005226;28;20461;-75
2022/01/07 04:31:06;;;;;;;3.10;2.27;;;;;;;-4.12;100.00;100962.44;5010168;28;20453;-75
2022/01/07 04:33:34;;;;;;;8.83;2.73;;;;;;;-4.07;100.00;100961.81;5010789;28;20481;-75
2022/01/07 04:36:00;;;;;;;7.37;2.53;;;;;;;-4.11;100.00;100957.41;5009409;28;21010;-75
2022/01/07 04:38:28;;;;;;;8.80;3.30;;;;;;;-4.17;100.00;100949.53;5010946;28;20462;-75
2022/01/07 04:40:55;;;;;;;5.37;2.47;;;;;;;-4.12;100.00;100953.13;5010822;28;20452;-75
2022/01/07 04:43:21;;;;;;;8.00;2.60;;;;;;;-4.00;100.00;100947.63;5011933;28;20470;-75
2022/01/07 04:45:47;;;;;;;6.13;2.70;;;;;;;-4.08;100.00;100957.53;5008924;28;20465;-76
2022/01/07 04:48:14;;;;;;;6.90;2.70;;;;;;;-3.97;100.00;100945.22;5011305;28;20454;-75
2022/01/07 04:50:40;;;;;;;3.97;2.00;;;;;;;-4.07;100.00;100948.22;5010603;28;20469;-75
2022/01/07 04:53:07;;;;;;;3.37;1.93;;;;;;;-4.05;100.00;100951.69;5010790;28;20489;-75
2022/01/07 04:55:37;;;;;;;6.73;2.37;;;;;;;-4.04;100.00;100944.09;5010914;28;20449;-75
2022/01/07 04:58:06;;;;;;;6.27;2.00;;;;;;;-4.02;100.00;100950.13;5005532;28;20484;-75
2022/01/07 05:00:32;;;;;;;4.80;2.20;;;;;;;-3.97;100.00;100951.97;5007745;28;20511;-75
2022/01/07 05:02:59;;;;;;;5.53;2.23;;;;;;;-4.01;100.00;100943.34;5005337;28;20473;-75
2022/01/07 05:05:26;;;;;;;8.60;2.93;;;;;;;-4.00;100.00;100945.94;5010438;28;20461;-75
2022/01/07 05:07:52;;;;;;;5.67;2.30;;;;;;;-3.90;100.00;100936.13;5009241;28;20454;-75
2022/01/07 05:10:19;;;;;;;11.67;2.67;;;;;;;-3.92;100.00;100927.53;5010415;28;20457;-75
2022/01/07 05:12:46;;;;;;;7.60;2.27;;;;;;;-3.91;100.00;100925.06;5006789;28;20484;-75
2022/01/07 05:15:14;;;;;;;9.77;2.50;;;;;;;-3.87;100.00;100923.47;5008589;28;20465;-75
2022/01/07 05:17:42;;;;;;;7.03;2.17;;;;;;;-3.90;100.00;100916.59;5008501;28;20460;-75
2022/01/07 05:20:09;;;;;;;5.50;1.90;;;;;;;-3.84;100.00;100923.59;5008691;28;20852;-75
2022/01/07 05:22:36;;;;;;;7.17;2.60;;;;;;;-3.82;100.00;100915.22;5008560;28;20474;-75
2022/01/07 05:25:03;;;;;;;5.30;2.33;;;;;;;-3.78;100.00;100918.75;5009953;28;21052;-75
2022/01/07 05:27:29;;;;;;;6.27;2.43;;;;;;;-3.78;100.00;100913.66;5009411;28;20463;-75
2022/01/07 05:29:57;;;;;;;6.33;2.50;;;;;;;-3.80;100.00;100915.25;5004953;28;20971;-75
2022/01/07 05:32:23;;;;;;;4.87;2.33;;;;;;;-3.82;100.00;100912.69;5007677;28;20496;-76
2022/01/07 05:34:56;;;;;;;7.20;2.17;;;;;;;-3.81;100.00;100911.84;5005125;28;20863;-75
2022/01/07 05:37:48;;;;;;;9.60;2.57;;;;;;;-3.79;100.00;100919.56;5007123;28;20517;-75
2022/01/07 05:40:16;;;;;;;8.60;2.43;;;;;;;-3.80;100.00;100910.16;5007517;28;21205;-75
2022/01/07 05:42:42;;;;;;;5.10;2.40;;;;;;;-3.78;100.00;100921.28;5008611;28;20843;-75
2022/01/07 05:45:11;;;;;;;3.70;2.30;;;;;;;-3.79;100.00;100918.69;5007507;28;20469;-75
2022/01/07 05:47:37;;;;;;;5.33;2.40;;;;;;;-3.76;100.00;100911.13;5008425;28;20466;-75
2022/01/07 05:50:04;;;;;;;4.73;2.00;;;;;;;-3.75;100.00;100906.09;5007776;28;21103;-75
2022/01/07 05:52:31;;;;;;;5.90;2.43;;;;;;;-3.81;100.00;100899.09;5009047;28;20498;-75
2022/01/07 05:55:00;;;;;;;7.67;2.17;;;;;;;-3.76;100.00;100898.38;5008575;28;20472;-75
2022/01/07 05:57:27;;;;;;;6.70;2.40;;;;;;;-3.76;100.00;100891.63;5007957;28;20996;-75
2022/01/07 05:59:54;;;;;;;6.17;2.33;;;;;;;-3.80;100.00;100889.78;5003698;28;20556;-75
2022/01/07 06:02:22;;;;;;;7.73;2.73;;;;;;;-3.83;100.00;100879.50;5006540;28;20477;-75
2022/01/07 06:04:48;;;;;;;3.07;2.37;;;;;;;-3.79;100.00;100886.41;5003193;28;20921;-75
2022/01/07 06:07:14;;;;;;;8.50;2.70;;;;;;;-3.83;100.00;100882.03;5008076;28;20457;-75
2022/01/07 06:09:41;;;;;;;8.60;2.20;;;;;;;-3.87;100.00;100883.59;5003822;28;20875;-75
2022/01/07 06:12:09;;;;;;;6.77;2.10;;;;;;;-3.91;100.00;100885.97;5007812;28;20832;-75
2022/01/07 06:14:35;;;;;;;7.87;2.87;;;;;;;-3.90;100.00;100896.22;5008140;28;20450;-75
2022/01/07 06:17:02;;;;;;;7.87;2.30;;;;;;;-3.84;100.00;100898.13;5007567;28;20471;-75
2022/01/07 06:19:29;;;;;;;7.07;2.47;;;;;;;-3.86;100.00;100890.41;5008067;28;20462;-75
2022/01/07 06:21:56;;;;;;;4.63;2.23;;;;;;;-3.90;100.00;100885.19;5007973;28;20489;-75
2022/01/07 06:24:22;;;;;;;4.97;1.80;;;;;;;-3.93;100.00;100882.50;5008961;28;20874;-75
2022/01/07 06:26:48;;;;;;;9.80;2.17;;;;;;;-3.89;100.00;100887.75;5007388;28;21064;-75
2022/01/07 06:29:15;;;;;;;9.50;2.03;;;;;;;-3.94;100.00;100891.84;5004211;28;20466;-75
2022/01/07 06:31:41;;;;;;;7.33;2.20;;;;;;;-3.95;100.00;100886.69;5007502;28;20457;-75
2022/01/07 06:34:08;;;;;;;7.07;2.43;;;;;;;-3.96;100.00;100890.88;5005044;28;21123;-75
2022/01/07 06:36:35;;;;;;;3.57;1.97;;;;;;;-3.95;100.00;100891.78;5007018;28;20461;-75
2022/01/07 06:39:02;;;;;;;9.27;2.90;;;;;;;-3.97;100.00;100885.72;5003376;28;20460;-75
2022/01/07 06:41:28;;;;;;;5.43;2.57;;;;;;;-3.95;100.00;100889.22;5006754;28;21082;-75
2022/01/07 06:43:55;;;;;;;8.67;2.63;;;;;;;-3.92;100.00;100892.75;5006863;28;20933;-75
2022/01/07 06:46:21;;;;;;;5.23;2.50;;;;;;;-3.81;100.00;100882.97;5004548;28;20462;-75
2022/01/07 06:48:48;;;;;;;7.60;2.90;;;;;;;-3.87;100.00;100893.81;4999929;28;20462;-75
2022/01/07 06:51:14;;;;;;;10.20;3.40;;;;;;;-3.85;100.00;100888.75;5005812;28;20462;-75
2022/01/07 06:53:42;;;;;;;15.40;7.07;;;;;;;-3.84;100.00;100891.34;5006412;28;20480;-75
2022/01/07 06:56:08;;;;;;;40.77;14.80;;;;;;;-3.88;100.00;100894.59;5001370;28;20565;-75
2022/01/07 06:58:34;;;;;;;55.27;20.30;;;;;;;-3.85;100.00;100894.72;5008230;28;20450;-76
2022/01/07 07:01:01;;;;;;;101.43;37.00;;;;;;;-3.81;100.00;100900.78;5003541;28;20459;-75
2022/01/07 07:03:27;;;;;;;61.50;27.93;;;;;;;-3.75;100.00;100907.78;5004148;28;20470;-75
2022/01/07 07:05:54;;;;;;;17.07;6.80;;;;;;;-3.74;100.00;100902.75;5005881;28;20998;-75
2022/01/07 07:08:20;;;;;;;8.33;3.50;;;;;;;-3.73;100.00;100895.97;5005633;28;21308;-75
2022/01/07 07:10:48;;;;;;;6.20;2.70;;;;;;;-3.73;100.00;100891.75;5001103;28;20597;-75
2022/01/07 07:13:14;;;;;;;13.50;3.90;;;;;;;-3.72;100.00;100890.94;5007549;28;20475;-75
2022/01/07 07:15:41;;;;;;;7.07;3.00;;;;;;;-3.71;100.00;100891.78;5006140;28;20867;-75
2022/01/07 07:18:07;;;;;;;8.43;3.40;;;;;;;-3.70;100.00;100886.75;5006886;28;20450;-75
2022/01/07 07:20:33;;;;;;;12.97;3.70;;;;;;;-3.67;100.00;100893.66;5004254;28;20455;-75
2022/01/07 07:23:00;;;;;;;7.80;3.17;;;;;;;-3.64;100.00;100896.28;5003052;28;20474;-75
2022/01/07 07:25:26;;;;;;;12.97;3.10;;;;;;;-3.65;100.00;100897.97;5007396;28;20454;-75
2022/01/07 07:27:54;;;;;;;6.83;2.70;;;;;;;-3.62;100.00;100887.03;5006576;28;20943;-75
2022/01/07 07:30:20;;;;;;;9.80;3.20;;;;;;;-3.60;100.00;100897.28;5007650;28;20963;-75
2022/01/07 07:32:48;;;;;;;8.27;3.00;;;;;;;-3.59;100.00;100891.38;5006614;28;20494;-75
2022/01/07 07:37:58;;;;;;;12.07;8.97;;;;;;;-3.55;100.00;100886.44;5005928;28;20552;-75
2022/01/07 07:40:24;;;;;;;9.83;6.60;;;;;;;-3.51;100.00;100887.41;5006695;28;21030;-75
2022/01/07 07:42:51;;;;;;;8.27;3.67;;;;;;;-3.46;100.00;100878.25;5006862;28;20471;-76
2022/01/07 07:45:20;;;;;;;7.60;3.33;;;;;;;-3.46;100.00;100878.25;4989710;28;20461;-75
2022/01/07 07:47:46;;;;;;;6.30;2.83;;;;;;;-3.40;100.00;100878.44;5005808;28;20476;-75
2022/01/07 07:50:13;;;;;;;8.30;3.40;;;;;;;-3.36;100.00;100884.53;5005071;28;20462;-75
2022/01/07 07:52:39;;;;;;;8.93;3.73;;;;;;;-3.30;100.00;100877.09;5004385;28;20497;-75
2022/01/07 07:55:06;;;;;;;9.63;4.27;;;;;;;-3.27;100.00;100875.50;5006104;28;20458;-75
2022/01/07 07:57:33;;;;;;;10.57;3.80;;;;;;;-3.19;100.00;100878.31;5006285;28;20469;-75
2022/01/07 07:59:59;;;;;;;11.00;3.90;;;;;;;-3.15;100.00;100874.19;5005505;28;21141;-76
2022/01/07 08:02:30;;;;;;;8.80;3.97;;;;;;;-3.11;100.00;100876.03;4989107;28;20511;-76
2022/01/07 08:04:56;;;;;;;12.40;3.80;;;;;;;-3.05;100.00;100866.03;5009574;28;20832;-75
2022/01/07 08:07:22;;;;;;;11.37;4.57;;;;;;;-3.01;100.00;100872.94;5011288;28;20463;-75
2022/01/07 08:09:51;;;;;;;10.13;3.97;;;;;;;-2.96;100.00;100873.13;5010478;28;20547;-75
2022/01/07 08:12:20;;;;;;;11.43;4.23;;;;;;;-2.90;100.00;100874.19;5010552;28;20228;-75
2022/01/07 08:17:32;;;;;;;11.13;4.27;;;;;;;-2.75;100.00;100867.84;5009205;28;20462;-75
2022/01/07 08:19:59;;;;;;;11.77;4.67;;;;;;;-2.70;100.00;100869.72;5005018;28;20198;-76
2022/01/07 08:22:25;;;;;;;10.10;4.83;;;;;;;-2.62;100.00;100862.31;5009179;28;20863;-75
2022/01/07 08:24:52;;;;;;;9.90;4.83;;;;;;;-2.54;100.00;100865.09;5010091;28;20959;-75
2022/01/07 08:27:21;;;;;;;12.30;4.37;;;;;;;-2.48;100.00;100857.59;5008317;28;20458;-76
2022/01/07 08:29:47;;;;;;;9.93;4.90;;;;;;;-2.45;100.00;100867.06;5009918;28;20204;-76
2022/01/07 08:34:56;;;;;;;7.07;4.57;;;;;;;-2.30;100.00;100847.09;4974032;28;20761;-75
2022/01/07 08:37:24;;;;;;;8.40;4.27;;;;;;;-2.21;100.00;100837.16;5007208;28;20211;-75
2022/01/07 08:39:53;;;;;;;10.70;4.03;;;;;;;-2.13;100.00;100840.81;5009750;28;20219;-75
2022/01/07 08:42:21;;;;;;;9.80;4.47;;;;;;;-2.05;100.00;100837.59;5009044;28;20224;-75
2022/01/07 08:44:48;;;;;;;8.10;3.80;;;;;;;-1.99;100.00;100833.50;5004770;28;20276;-75
2022/01/07 08:47:14;;;;;;;6.67;3.57;;;;;;;-1.94;100.00;100831.94;5006862;28;20716;-75
2022/01/07 08:49:41;;;;;;;8.00;4.03;;;;;;;-1.87;100.00;100834.69;5009332;28;20666;-75
2022/01/07 08:52:08;;;;;;;5.87;3.40;;;;;;;-1.81;100.00;100833.16;5005733;28;20247;-75
2022/01/07 08:54:35;;;;;;;7.83;4.33;;;;;;;-1.74;100.00;100827.41;5009550;28;20231;-75
2022/01/07 08:57:01;;;;;;;7.37;4.03;;;;;;;-1.69;100.00;100829.22;5003244;28;20231;-75
2022/01/07 08:59:28;;;;;;;9.50;3.90;;;;;;;-1.65;100.00;100825.91;5008424;28;20219;-75
2022/01/07 09:01:54;;;;;;;6.87;3.60;;;;;;;-1.59;100.00;100819.25;4993499;28;20236;-75
2022/01/07 09:04:20;;;;;;;11.43;4.20;;;;;;;-1.55;100.00;100817.66;5007271;28;20193;-76
2022/01/07 09:06:47;;;;;;;9.17;3.93;;;;;;;-1.49;100.00;100822.09;5008893;28;20205;-76
2022/01/07 09:09:15;;;;;;;10.57;4.57;;;;;;;-1.45;100.00;100823.88;5006960;28;20208;-76
2022/01/07 09:11:41;;;;;;;8.90;4.10;;;;;;;-1.41;100.00;100813.75;5006432;28;20211;-76
2022/01/07 09:14:07;;;;;;;7.27;3.93;;;;;;;-1.38;100.00;100816.41;5008280;28;20232;-76
2022/01/07 09:16:34;;;;;;;9.67;3.73;;;;;;;-1.34;100.00;100813.09;5008179;28;20205;-76
2022/01/07 09:19:02;;;;;;;12.67;5.47;;;;;;;-1.30;100.00;100819.16;5004951;28;20288;-76
2022/01/07 09:21:28;;;;;;;6.07;4.00;;;;;;;-1.27;100.00;100813.25;5008297;28;20201;-75
2022/01/07 09:23:54;;;;;;;5.37;3.73;;;;;;;-1.21;100.00;100821.09;5007958;28;20207;-75
2022/01/07 09:26:22;;;;;;;7.47;4.10;;;;;;;-1.17;100.00;100817.78;5007457;28;20776;-76
2022/01/07 09:28:49;;;;;;;7.70;3.93;;;;;;;-1.17;100.00;100812.66;5008291;28;20200;-76
2022/01/07 09:31:17;;;;;;;6.20;3.90;;;;;;;-1.12;100.00;100817.91;5005684;28;20204;-76
2022/01/07 09:33:43;;;;;;;11.30;4.20;;;;;;;-1.07;100.00;100812.06;5005530;28;20376;-76
2022/01/07 09:36:10;;;;;;;8.77;4.17;;;;;;;-1.03;100.00;100808.72;5006426;28;20199;-76
2022/01/07 09:38:36;;;;;;;10.20;4.43;;;;;;;-0.98;100.00;100801.19;5008570;28;20204;-76
2022/01/07 09:41:02;;;;;;;6.43;3.80;;;;;;;-0.97;100.00;100796.09;5007002;28;20200;-76
2022/01/07 09:43:30;;;;;;;10.93;4.83;;;;;;;-0.94;100.00;100792.72;5008020;28;20212;-76
2022/01/07 09:45:56;;;;;;;8.57;4.07;;;;;;;-0.89;100.00;100785.16;5005706;28;20677;-76
2022/01/07 09:48:23;;;;;;;9.13;4.07;;;;;;;-0.87;100.00;100780.94;5008722;28;21132;-76
2022/01/07 09:50:49;;;;;;;8.30;3.93;;;;;;;-0.87;100.00;100779.25;5003864;28;20205;-76
2022/01/07 09:53:16;;;;;;;9.17;4.70;;;;;;;-0.83;100.00;100778.47;5007966;28;20212;-76
2022/01/07 09:55:44;;;;;;;9.97;5.20;;;;;;;-0.79;100.00;100770.03;5005142;28;20197;-76
2022/01/07 09:58:12;;;;;;;13.50;5.37;;;;;;;-0.77;100.00;100775.19;5003049;28;20223;-76
2022/01/07 10:00:42;;;;;;;18.37;7.63;;;;;;;-0.74;100.00;100775.25;5007385;28;20213;-76
2022/01/07 10:03:10;;;;;;;13.37;6.00;;;;;;;-0.71;100.00;100774.47;5004714;28;20227;-76
2022/01/07 10:05:45;;;;;;;12.63;5.77;;;;;;;-0.66;100.00;100772.88;5007747;28;20211;-76
2022/01/07 10:08:23;;;;;;;13.60;5.83;;;;;;;-0.64;100.00;100766.94;4988703;28;20292;-76
2022/01/07 10:11:13;;;;;;;13.63;6.23;;;;;;;-0.60;100.00;100766.19;5004439;28;20197;-76
2022/01/07 10:13:40;;;;;;;11.80;6.07;;;;;;;-0.54;100.00;100752.66;5005337;28;20216;-75
2022/01/07 10:16:17;;;;;;;11.30;5.20;;;;;;;-0.52;100.00;100756.09;5007650;28;20228;-76
2022/01/07 10:18:44;;;;;;;10.23;4.53;;;;;;;-0.49;100.00;100750.16;5000257;28;20203;-76
2022/01/07 10:21:11;;;;;;;8.10;4.77;;;;;;;-0.45;100.00;100757.09;5007716;28;20587;-76
2022/01/07 10:23:38;;;;;;;9.67;4.20;;;;;;;-0.41;100.00;100762.31;5004375;28;20228;-76
2022/01/07 10:26:12;;;;;;;10.53;4.90;;;;;;;-0.37;100.00;100750.41;5006235;28;20208;-76
2022/01/07 10:28:39;;;;;;;26.67;12.87;;;;;;;-0.32;100.00;100748.81;5003122;28;20196;-76
2022/01/07 10:31:08;;;;;;;25.77;11.37;;;;;;;-0.29;100.00;100748.88;5007464;28;20204;-76
2022/01/07 10:33:39;;;;;;;14.77;8.53;;;;;;;-0.25;100.00;100745.53;5002201;28;20320;-76
2022/01/07 10:36:18;;;;;;;8.97;4.77;;;;;;;-0.18;100.00;100738.84;5005447;28;20189;-76
2022/01/07 10:38:50;;;;;;;8.17;4.70;;;;;;;-0.13;100.00;100736.38;5005245;28;20731;-76
2022/01/07 10:41:17;;;;;;;12.17;5.17;;;;;;;-0.07;100.00;100729.69;5002605;28;20202;-76
2022/01/07 10:43:44;;;;;;;6.23;4.07;;;;;;;-0.02;100.00;100728.06;5004308;28;20227;-76
2022/01/07 10:46:16;;;;;;;7.03;3.97;;;;;;;0.03;100.00;100728.13;5001983;28;20205;-76
2022/01/07 10:48:49;;;;;;;12.17;5.70;;;;;;;0.07;100.00;100729.06;5003734;28;20287;-76
2022/01/07 10:51:19;;;;;;;16.87;8.70;;;;;;;0.11;100.00;100723.16;5003661;28;20602;-76
2022/01/07 10:53:49;;;;;;;39.07;17.30;;;;;;;0.14;100.00;100731.78;5005419;28;20231;-76
2022/01/07 10:56:16;;;;;;;28.90;13.60;;;;;;;0.17;100.00;100724.13;5003720;28;20196;-76
2022/01/07 10:59:05;;;;;;;12.53;5.60;;;;;;;0.22;100.00;100723.34;5006991;28;20208;-76
2022/01/07 11:01:43;;;;;;;10.20;6.07;;;;;;;0.25;99.93;100729.41;4999153;28;20755;-76
2022/01/07 11:04:16;;;;;;;7.40;4.20;;;;;;;0.27;98.40;100735.41;5005295;28;20196;-76
2022/01/07 11:06:43;;;;;;;10.57;5.97;;;;;;;0.28;98.93;100726.91;5003016;28;20731;-76
2022/01/07 11:09:12;;;;;;;10.80;5.23;;;;;;;0.29;99.64;100722.63;5006283;28;20395;-76
2022/01/07 11:11:51;;;;;;;9.73;4.80;;;;;;;0.28;99.61;100721.78;5004319;28;20204;-76
2022/01/07 11:14:20;;;;;;;8.93;5.00;;;;;;;0.28;99.10;100723.44;5002980;28;20220;-76
2022/01/07 11:16:47;;;;;;;7.87;4.63;;;;;;;0.29;97.82;100722.63;5003745;28;20206;-76
2022/01/07 11:19:19;;;;;;;8.43;4.17;;;;;;;0.29;97.71;100713.22;5005327;28;20210;-76
2022/01/07 11:21:49;;;;;;;10.57;5.00;;;;;;;0.33;97.78;100712.44;5001090;28;20689;-76